sensor_id;sensor_type;location;lat;lon;timestamp;P1;durP1;ratioP1;P2;durP2;ratioP2
8183;SDS011;4133;48.752;9.088;2022-08-20T00:01:27;1.00;;;1.00;;
8183;SDS011;4133;48.752;9.088;2022-08-20T00:03:53;1.20;;;1.20;;
8183;SDS011;4133;48.752;9.088;2022-08-20T00:06:20;0.95;;;0.95;;
8183;SDS011;4133;48.752;9.088;2022-08-20T00:08:47;1.27;;;1.20;;
8183;SDS011;4133;48.752;9.088;2022-08-20T00:11:14;1.38;;;1.20;;
8183;SDS011;4133;48.752;9.088;2022-08-20T00:13:46;1.20;;;1.10;;
8183;SDS011;4133;48.752;9.088;2022-08-20T00:16:12;0.90;;;0.90;;
8183;SDS011;4133;48.752;9.088;2022-08-20T00:18:39;1.00;;;1.00;;
8183;SDS011;4133;48.752;9.088;2022-08-20T00:21:07;1.20;;;1.10;;
8183;SDS011;4133;48.752;9.088;2022-08-20T00:23:37;1.00;;;1.00;;
8183;SDS011;4133;48.752;9.088;2022-08-20T00:26:03;1.10;;;1.10;;
8183;SDS011;4133;48.752;9.088;2022-08-20T00:28:29;1.25;;;1.10;;
8183;SDS011;4133;48.752;9.088;2022-08-20T00:30:55;1.13;;;1.10;;
8183;SDS011;4133;48.752;9.088;2022-08-20T00:33:22;1.67;;;1.10;;
8183;SDS011;4133;48.752;9.088;2022-08-20T00:35:50;1.30;;;1.20;;
8183;SDS011;4133;48.752;9.088;2022-08-20T00:38:17;1.30;;;1.10;;
8183;SDS011;4133;48.752;9.088;2022-08-20T00:40:45;1.23;;;1.13;;
8183;SDS011;4133;48.752;9.088;2022-08-20T00:45:52;3.08;;;1.30;;
8183;SDS011;4133;48.752;9.088;2022-08-20T00:48:25;1.10;;;1.10;;
8183;SDS011;4133;48.752;9.088;2022-08-20T00:50:52;1.60;;;1.00;;
8183;SDS011;4133;48.752;9.088;2022-08-20T00:53:21;1.17;;;1.00;;
8183;SDS011;4133;48.752;9.088;2022-08-20T00:55:48;1.20;;;1.10;;
8183;SDS011;4133;48.752;9.088;2022-08-20T00:58:14;1.17;;;1.10;;
8183;SDS011;4133;48.752;9.088;2022-08-20T01:00:44;0.90;;;0.90;;
8183;SDS011;4133;48.752;9.088;2022-08-20T01:03:12;2.65;;;1.10;;
8183;SDS011;4133;48.752;9.088;2022-08-20T01:05:40;1.02;;;0.98;;
8183;SDS011;4133;48.752;9.088;2022-08-20T01:08:06;1.17;;;1.00;;
8183;SDS011;4133;48.752;9.088;2022-08-20T01:10:34;2.00;;;0.98;;
8183;SDS011;4133;48.752;9.088;2022-08-20T01:13:03;1.02;;;1.00;;
8183;SDS011;4133;48.752;9.088;2022-08-20T01:15:32;0.98;;;0.90;;
8183;SDS011;4133;48.752;9.088;2022-08-20T01:17:59;0.90;;;0.90;;
8183;SDS011;4133;48.752;9.088;2022-08-20T01:20:33;1.10;;;1.00;;
8183;SDS011;4133;48.752;9.088;2022-08-20T01:25:55;1.10;;;1.10;;
8183;SDS011;4133;48.752;9.088;2022-08-20T01:28:24;1.33;;;1.23;;
8183;SDS011;4133;48.752;9.088;2022-08-20T01:30:51;1.10;;;1.00;;
8183;SDS011;4133;48.752;9.088;2022-08-20T01:33:17;1.20;;;1.10;;
8183;SDS011;4133;48.752;9.088;2022-08-20T01:35:43;0.80;;;0.80;;
8183;SDS011;4133;48.752;9.088;2022-08-20T01:38:10;1.13;;;1.13;;
8183;SDS011;4133;48.752;9.088;2022-08-20T01:43:05;0.90;;;0.90;;
8183;SDS011;4133;48.752;9.088;2022-08-20T01:45:33;1.20;;;1.10;;
8183;SDS011;4133;48.752;9.088;2022-08-20T01:48:00;2.10;;;1.10;;
8183;SDS011;4133;48.752;9.088;2022-08-20T01:50:26;1.77;;;0.90;;
8183;SDS011;4133;48.752;9.088;2022-08-20T01:55:22;1.00;;;0.90;;
8183;SDS011;4133;48.752;9.088;2022-08-20T01:57:50;1.08;;;1.08;;
8183;SDS011;4133;48.752;9.088;2022-08-20T02:00:17;2.33;;;1.13;;
8183;SDS011;4133;48.752;9.088;2022-08-20T02:02:43;0.90;;;0.90;;
8183;SDS011;4133;48.752;9.088;2022-08-20T02:05:09;1.25;;;1.13;;
8183;SDS011;4133;48.752;9.088;2022-08-20T02:07:35;1.35;;;1.25;;
8183;SDS011;4133;48.752;9.088;2022-08-20T02:10:03;2.50;;;1.10;;
8183;SDS011;4133;48.752;9.088;2022-08-20T02:12:29;1.42;;;1.27;;
8183;SDS011;4133;48.752;9.088;2022-08-20T02:14:55;2.15;;;1.05;;
8183;SDS011;4133;48.752;9.088;2022-08-20T02:17:22;1.30;;;1.20;;
8183;SDS011;4133;48.752;9.088;2022-08-20T02:19:51;1.30;;;1.23;;
8183;SDS011;4133;48.752;9.088;2022-08-20T02:25:09;1.10;;;1.10;;
8183;SDS011;4133;48.752;9.088;2022-08-20T02:27:37;1.15;;;1.08;;
8183;SDS011;4133;48.752;9.088;2022-08-20T02:30:05;1.58;;;0.80;;
8183;SDS011;4133;48.752;9.088;2022-08-20T02:32:32;2.88;;;0.90;;
8183;SDS011;4133;48.752;9.088;2022-08-20T02:34:59;2.10;;;1.10;;
8183;SDS011;4133;48.752;9.088;2022-08-20T02:37:27;1.20;;;1.10;;
8183;SDS011;4133;48.752;9.088;2022-08-20T02:39:53;1.20;;;1.10;;
8183;SDS011;4133;48.752;9.088;2022-08-20T02:42:19;1.13;;;1.05;;
8183;SDS011;4133;48.752;9.088;2022-08-20T02:44:45;2.05;;;1.20;;
8183;SDS011;4133;48.752;9.088;2022-08-20T02:47:11;1.65;;;1.00;;
8183;SDS011;4133;48.752;9.088;2022-08-20T02:49:37;2.17;;;1.30;;
8183;SDS011;4133;48.752;9.088;2022-08-20T02:52:03;0.90;;;0.90;;
8183;SDS011;4133;48.752;9.088;2022-08-20T02:54:29;1.00;;;1.00;;
8183;SDS011;4133;48.752;9.088;2022-08-20T02:56:55;1.00;;;1.00;;
8183;SDS011;4133;48.752;9.088;2022-08-20T02:59:21;1.33;;;1.23;;
8183;SDS011;4133;48.752;9.088;2022-08-20T03:01:47;1.10;;;1.00;;
8183;SDS011;4133;48.752;9.088;2022-08-20T03:04:13;1.20;;;1.20;;
8183;SDS011;4133;48.752;9.088;2022-08-20T03:06:39;0.95;;;0.95;;
8183;SDS011;4133;48.752;9.088;2022-08-20T03:09:05;1.20;;;1.15;;
8183;SDS011;4133;48.752;9.088;2022-08-20T03:11:32;1.30;;;1.20;;
8183;SDS011;4133;48.752;9.088;2022-08-20T03:13:59;1.65;;;1.23;;
8183;SDS011;4133;48.752;9.088;2022-08-20T03:16:25;1.10;;;1.10;;
8183;SDS011;4133;48.752;9.088;2022-08-20T03:18:51;1.73;;;1.20;;
8183;SDS011;4133;48.752;9.088;2022-08-20T03:21:17;1.63;;;1.15;;
8183;SDS011;4133;48.752;9.088;2022-08-20T03:23:43;1.48;;;1.38;;
8183;SDS011;4133;48.752;9.088;2022-08-20T03:26:10;1.40;;;1.30;;
8183;SDS011;4133;48.752;9.088;2022-08-20T03:28:36;3.28;;;1.20;;
8183;SDS011;4133;48.752;9.088;2022-08-20T03:31:03;2.13;;;1.38;;
8183;SDS011;4133;48.752;9.088;2022-08-20T03:33:29;1.23;;;1.20;;
8183;SDS011;4133;48.752;9.088;2022-08-20T03:35:55;1.40;;;1.30;;
8183;SDS011;4133;48.752;9.088;2022-08-20T03:38:22;1.42;;;1.33;;
8183;SDS011;4133;48.752;9.088;2022-08-20T03:40:48;1.73;;;1.30;;
8183;SDS011;4133;48.752;9.088;2022-08-20T03:43:14;1.17;;;1.17;;
8183;SDS011;4133;48.752;9.088;2022-08-20T03:45:40;1.42;;;1.33;;
8183;SDS011;4133;48.752;9.088;2022-08-20T03:48:09;1.88;;;1.48;;
8183;SDS011;4133;48.752;9.088;2022-08-20T03:50:35;2.55;;;1.52;;
8183;SDS011;4133;48.752;9.088;2022-08-20T03:53:02;1.40;;;1.30;;
8183;SDS011;4133;48.752;9.088;2022-08-20T03:55:30;1.83;;;1.55;;
8183;SDS011;4133;48.752;9.088;2022-08-20T03:57:57;1.85;;;1.50;;
8183;SDS011;4133;48.752;9.088;2022-08-20T04:00:27;1.50;;;1.40;;
8183;SDS011;4133;48.752;9.088;2022-08-20T04:02:53;2.92;;;1.70;;
8183;SDS011;4133;48.752;9.088;2022-08-20T04:05:21;1.60;;;1.50;;
8183;SDS011;4133;48.752;9.088;2022-08-20T04:07:47;2.28;;;1.60;;
8183;SDS011;4133;48.752;9.088;2022-08-20T04:10:14;1.67;;;1.58;;
8183;SDS011;4133;48.752;9.088;2022-08-20T04:12:40;2.45;;;1.80;;
8183;SDS011;4133;48.752;9.088;2022-08-20T04:15:08;2.80;;;1.65;;
8183;SDS011;4133;48.752;9.088;2022-08-20T04:17:35;2.60;;;1.65;;
8183;SDS011;4133;48.752;9.088;2022-08-20T04:20:02;1.90;;;1.80;;
8183;SDS011;4133;48.752;9.088;2022-08-20T04:22:29;2.40;;;1.80;;
8183;SDS011;4133;48.752;9.088;2022-08-20T04:24:55;1.85;;;1.75;;
8183;SDS011;4133;48.752;9.088;2022-08-20T04:27:21;2.28;;;1.80;;
8183;SDS011;4133;48.752;9.088;2022-08-20T04:29:46;2.25;;;2.10;;
8183;SDS011;4133;48.752;9.088;2022-08-20T04:32:12;1.77;;;1.67;;
8183;SDS011;4133;48.752;9.088;2022-08-20T04:34:38;2.17;;;1.73;;
8183;SDS011;4133;48.752;9.088;2022-08-20T04:37:05;2.10;;;1.90;;
8183;SDS011;4133;48.752;9.088;2022-08-20T04:39:31;2.03;;;1.90;;
8183;SDS011;4133;48.752;9.088;2022-08-20T04:41:57;2.10;;;1.80;;
8183;SDS011;4133;48.752;9.088;2022-08-20T04:44:23;2.20;;;2.10;;
8183;SDS011;4133;48.752;9.088;2022-08-20T04:46:49;2.22;;;1.80;;
8183;SDS011;4133;48.752;9.088;2022-08-20T04:49:15;2.00;;;1.80;;
8183;SDS011;4133;48.752;9.088;2022-08-20T04:51:41;1.85;;;1.75;;
8183;SDS011;4133;48.752;9.088;2022-08-20T04:54:07;2.35;;;1.63;;
8183;SDS011;4133;48.752;9.088;2022-08-20T04:56:33;2.00;;;1.90;;
8183;SDS011;4133;48.752;9.088;2022-08-20T04:59:03;1.90;;;1.80;;
8183;SDS011;4133;48.752;9.088;2022-08-20T05:01:30;1.92;;;1.83;;
8183;SDS011;4133;48.752;9.088;2022-08-20T05:03:58;1.92;;;1.83;;
8183;SDS011;4133;48.752;9.088;2022-08-20T05:06:25;2.00;;;1.90;;
8183;SDS011;4133;48.752;9.088;2022-08-20T05:08:53;2.15;;;1.95;;
8183;SDS011;4133;48.752;9.088;2022-08-20T05:11:19;2.10;;;1.90;;
8183;SDS011;4133;48.752;9.088;2022-08-20T05:13:46;2.10;;;2.00;;
8183;SDS011;4133;48.752;9.088;2022-08-20T05:16:12;3.85;;;1.90;;
8183;SDS011;4133;48.752;9.088;2022-08-20T05:18:39;2.30;;;2.10;;
8183;SDS011;4133;48.752;9.088;2022-08-20T05:21:05;2.70;;;2.05;;
8183;SDS011;4133;48.752;9.088;2022-08-20T05:23:32;2.42;;;2.25;;
8183;SDS011;4133;48.752;9.088;2022-08-20T05:25:58;2.63;;;2.42;;
8183;SDS011;4133;48.752;9.088;2022-08-20T05:28:25;2.40;;;2.20;;
8183;SDS011;4133;48.752;9.088;2022-08-20T05:30:54;2.20;;;2.10;;
8183;SDS011;4133;48.752;9.088;2022-08-20T05:33:21;2.25;;;2.05;;
8183;SDS011;4133;48.752;9.088;2022-08-20T05:35:47;2.13;;;2.03;;
8183;SDS011;4133;48.752;9.088;2022-08-20T05:38:15;2.60;;;2.40;;
8183;SDS011;4133;48.752;9.088;2022-08-20T05:40:43;3.83;;;2.20;;
8183;SDS011;4133;48.752;9.088;2022-08-20T05:43:09;2.35;;;2.15;;
8183;SDS011;4133;48.752;9.088;2022-08-20T05:45:36;2.10;;;2.00;;
8183;SDS011;4133;48.752;9.088;2022-08-20T05:48:03;2.28;;;1.98;;
8183;SDS011;4133;48.752;9.088;2022-08-20T05:50:29;2.22;;;2.03;;
8183;SDS011;4133;48.752;9.088;2022-08-20T05:52:57;2.30;;;2.15;;
8183;SDS011;4133;48.752;9.088;2022-08-20T05:55:25;2.63;;;2.42;;
8183;SDS011;4133;48.752;9.088;2022-08-20T05:57:55;2.45;;;2.25;;
8183;SDS011;4133;48.752;9.088;2022-08-20T06:00:21;3.72;;;2.38;;
8183;SDS011;4133;48.752;9.088;2022-08-20T06:02:47;2.80;;;2.40;;
8183;SDS011;4133;48.752;9.088;2022-08-20T06:05:32;2.70;;;2.50;;
8183;SDS011;4133;48.752;9.088;2022-08-20T06:07:58;2.95;;;2.60;;
8183;SDS011;4133;48.752;9.088;2022-08-20T06:10:24;2.80;;;2.60;;
8183;SDS011;4133;48.752;9.088;2022-08-20T06:12:50;2.65;;;2.45;;
8183;SDS011;4133;48.752;9.088;2022-08-20T06:15:17;2.70;;;2.50;;
8183;SDS011;4133;48.752;9.088;2022-08-20T06:17:43;2.50;;;2.30;;
8183;SDS011;4133;48.752;9.088;2022-08-20T06:20:09;2.67;;;2.47;;
8183;SDS011;4133;48.752;9.088;2022-08-20T06:22:36;2.70;;;2.50;;
8183;SDS011;4133;48.752;9.088;2022-08-20T06:25:02;3.30;;;2.30;;
8183;SDS011;4133;48.752;9.088;2022-08-20T06:27:28;2.20;;;2.05;;
8183;SDS011;4133;48.752;9.088;2022-08-20T06:29:54;3.05;;;2.42;;
8183;SDS011;4133;48.752;9.088;2022-08-20T06:32:20;3.75;;;2.60;;
8183;SDS011;4133;48.752;9.088;2022-08-20T06:34:48;2.63;;;2.42;;
8183;SDS011;4133;48.752;9.088;2022-08-20T06:37:20;2.60;;;2.40;;
8183;SDS011;4133;48.752;9.088;2022-08-20T06:39:47;5.55;;;2.45;;
8183;SDS011;4133;48.752;9.088;2022-08-20T06:42:13;2.40;;;2.20;;
8183;SDS011;4133;48.752;9.088;2022-08-20T06:44:39;3.00;;;2.70;;
8183;SDS011;4133;48.752;9.088;2022-08-20T06:47:05;3.83;;;2.42;;
8183;SDS011;4133;48.752;9.088;2022-08-20T06:49:35;3.67;;;2.35;;
8183;SDS011;4133;48.752;9.088;2022-08-20T06:52:02;2.72;;;2.35;;
8183;SDS011;4133;48.752;9.088;2022-08-20T06:54:28;2.70;;;2.50;;
8183;SDS011;4133;48.752;9.088;2022-08-20T06:56:54;3.38;;;2.35;;
8183;SDS011;4133;48.752;9.088;2022-08-20T06:59:20;2.80;;;2.33;;
8183;SDS011;4133;48.752;9.088;2022-08-20T07:01:46;2.63;;;2.42;;
8183;SDS011;4133;48.752;9.088;2022-08-20T07:04:15;2.80;;;2.47;;
8183;SDS011;4133;48.752;9.088;2022-08-20T07:06:41;4.07;;;2.55;;
8183;SDS011;4133;48.752;9.088;2022-08-20T07:09:08;2.72;;;2.28;;
8183;SDS011;4133;48.752;9.088;2022-08-20T07:11:34;2.38;;;2.17;;
8183;SDS011;4133;48.752;9.088;2022-08-20T07:14:00;2.60;;;2.40;;
8183;SDS011;4133;48.752;9.088;2022-08-20T07:16:29;2.40;;;2.25;;
8183;SDS011;4133;48.752;9.088;2022-08-20T07:18:55;2.40;;;2.20;;
8183;SDS011;4133;48.752;9.088;2022-08-20T07:21:22;3.22;;;2.35;;
8183;SDS011;4133;48.752;9.088;2022-08-20T07:23:48;2.97;;;2.65;;
8183;SDS011;4133;48.752;9.088;2022-08-20T07:26:14;2.78;;;2.58;;
8183;SDS011;4133;48.752;9.088;2022-08-20T07:28:40;3.28;;;2.10;;
8183;SDS011;4133;48.752;9.088;2022-08-20T07:31:06;2.88;;;2.20;;
8183;SDS011;4133;48.752;9.088;2022-08-20T07:33:51;2.83;;;2.50;;
8183;SDS011;4133;48.752;9.088;2022-08-20T07:36:17;2.85;;;2.38;;
8183;SDS011;4133;48.752;9.088;2022-08-20T07:38:44;3.17;;;2.30;;
8183;SDS011;4133;48.752;9.088;2022-08-20T07:41:14;2.42;;;2.22;;
8183;SDS011;4133;48.752;9.088;2022-08-20T07:43:41;2.42;;;2.22;;
8183;SDS011;4133;48.752;9.088;2022-08-20T07:46:09;2.50;;;2.03;;
8183;SDS011;4133;48.752;9.088;2022-08-20T07:48:37;2.50;;;2.30;;
8183;SDS011;4133;48.752;9.088;2022-08-20T07:51:04;5.95;;;2.42;;
8183;SDS011;4133;48.752;9.088;2022-08-20T07:53:34;3.10;;;2.22;;
8183;SDS011;4133;48.752;9.088;2022-08-20T07:56:01;7.22;;;2.60;;
8183;SDS011;4133;48.752;9.088;2022-08-20T07:58:27;7.70;;;2.60;;
8183;SDS011;4133;48.752;9.088;2022-08-20T08:00:54;2.40;;;2.22;;
8183;SDS011;4133;48.752;9.088;2022-08-20T08:03:20;2.63;;;2.20;;
8183;SDS011;4133;48.752;9.088;2022-08-20T08:05:47;2.72;;;2.17;;
8183;SDS011;4133;48.752;9.088;2022-08-20T08:08:24;2.97;;;2.47;;
8183;SDS011;4133;48.752;9.088;2022-08-20T08:10:53;2.40;;;2.20;;
8183;SDS011;4133;48.752;9.088;2022-08-20T08:13:20;2.50;;;2.08;;
8183;SDS011;4133;48.752;9.088;2022-08-20T08:15:50;2.58;;;2.25;;
8183;SDS011;4133;48.752;9.088;2022-08-20T08:18:18;2.30;;;2.10;;
8183;SDS011;4133;48.752;9.088;2022-08-20T08:20:46;2.05;;;1.95;;
8183;SDS011;4133;48.752;9.088;2022-08-20T08:23:13;3.15;;;2.03;;
8183;SDS011;4133;48.752;9.088;2022-08-20T08:25:42;2.00;;;1.90;;
8183;SDS011;4133;48.752;9.088;2022-08-20T08:28:09;2.10;;;1.90;;
8183;SDS011;4133;48.752;9.088;2022-08-20T08:30:36;2.20;;;2.10;;
8183;SDS011;4133;48.752;9.088;2022-08-20T08:33:04;3.28;;;2.00;;
8183;SDS011;4133;48.752;9.088;2022-08-20T08:35:48;2.30;;;2.10;;
8183;SDS011;4133;48.752;9.088;2022-08-20T08:38:15;2.47;;;2.20;;
8183;SDS011;4133;48.752;9.088;2022-08-20T08:40:41;2.00;;;1.90;;
8183;SDS011;4133;48.752;9.088;2022-08-20T08:43:08;2.25;;;2.05;;
8183;SDS011;4133;48.752;9.088;2022-08-20T08:45:44;2.42;;;1.80;;
8183;SDS011;4133;48.752;9.088;2022-08-20T08:48:12;1.77;;;1.67;;
8183;SDS011;4133;48.752;9.088;2022-08-20T08:50:39;3.25;;;1.80;;
8183;SDS011;4133;48.752;9.088;2022-08-20T08:53:10;2.17;;;1.92;;
8183;SDS011;4133;48.752;9.088;2022-08-20T08:55:40;2.50;;;2.30;;
8183;SDS011;4133;48.752;9.088;2022-08-20T08:58:06;2.53;;;1.90;;
8183;SDS011;4133;48.752;9.088;2022-08-20T09:00:34;2.33;;;2.13;;
8183;SDS011;4133;48.752;9.088;2022-08-20T09:08:02;1.90;;;1.80;;
8183;SDS011;4133;48.752;9.088;2022-08-20T09:10:30;2.22;;;1.90;;
8183;SDS011;4133;48.752;9.088;2022-08-20T09:12:56;2.20;;;1.90;;
8183;SDS011;4133;48.752;9.088;2022-08-20T09:15:25;1.77;;;1.67;;
8183;SDS011;4133;48.752;9.088;2022-08-20T09:17:51;2.65;;;2.00;;
8183;SDS011;4133;48.752;9.088;2022-08-20T09:20:17;3.90;;;1.60;;
8183;SDS011;4133;48.752;9.088;2022-08-20T09:22:43;1.65;;;1.55;;
8183;SDS011;4133;48.752;9.088;2022-08-20T09:25:09;1.65;;;1.17;;
8183;SDS011;4133;48.752;9.088;2022-08-20T09:27:35;1.70;;;1.40;;
8183;SDS011;4133;48.752;9.088;2022-08-20T09:30:02;1.77;;;1.23;;
8183;SDS011;4133;48.752;9.088;2022-08-20T09:32:28;1.23;;;1.13;;
8183;SDS011;4133;48.752;9.088;2022-08-20T09:34:57;1.17;;;1.08;;
8183;SDS011;4133;48.752;9.088;2022-08-20T09:37:24;6.63;;;1.35;;
8183;SDS011;4133;48.752;9.088;2022-08-20T09:39:51;1.25;;;1.20;;
8183;SDS011;4133;48.752;9.088;2022-08-20T09:42:18;1.10;;;1.05;;
8183;SDS011;4133;48.752;9.088;2022-08-20T09:44:44;1.30;;;1.20;;
8183;SDS011;4133;48.752;9.088;2022-08-20T09:47:11;1.30;;;1.17;;
8183;SDS011;4133;48.752;9.088;2022-08-20T09:49:37;1.25;;;1.25;;
8183;SDS011;4133;48.752;9.088;2022-08-20T09:52:04;1.77;;;1.40;;
8183;SDS011;4133;48.752;9.088;2022-08-20T09:54:31;1.00;;;1.00;;
8183;SDS011;4133;48.752;9.088;2022-08-20T09:57:01;1.20;;;1.17;;
8183;SDS011;4133;48.752;9.088;2022-08-20T09:59:31;1.20;;;1.10;;
8183;SDS011;4133;48.752;9.088;2022-08-20T10:01:57;2.78;;;1.08;;
8183;SDS011;4133;48.752;9.088;2022-08-20T10:04:24;1.20;;;1.10;;
8183;SDS011;4133;48.752;9.088;2022-08-20T10:06:50;2.78;;;1.10;;
8183;SDS011;4133;48.752;9.088;2022-08-20T10:09:25;5.10;;;1.10;;
8183;SDS011;4133;48.752;9.088;2022-08-20T10:11:54;1.15;;;1.08;;
8183;SDS011;4133;48.752;9.088;2022-08-20T10:14:24;1.20;;;1.20;;
8183;SDS011;4133;48.752;9.088;2022-08-20T10:16:56;2.38;;;1.40;;
8183;SDS011;4133;48.752;9.088;2022-08-20T10:19:23;1.10;;;1.10;;
8183;SDS011;4133;48.752;9.088;2022-08-20T10:21:52;2.03;;;1.30;;
8183;SDS011;4133;48.752;9.088;2022-08-20T10:24:19;3.05;;;1.40;;
8183;SDS011;4133;48.752;9.088;2022-08-20T10:26:45;1.52;;;1.15;;
8183;SDS011;4133;48.752;9.088;2022-08-20T10:29:13;0.77;;;0.77;;
8183;SDS011;4133;48.752;9.088;2022-08-20T10:31:39;0.68;;;0.68;;
8183;SDS011;4133;48.752;9.088;2022-08-20T10:34:09;1.95;;;0.40;;
8183;SDS011;4133;48.752;9.088;2022-08-20T10:36:35;0.45;;;0.45;;
8183;SDS011;4133;48.752;9.088;2022-08-20T10:39:04;1.30;;;0.50;;
8183;SDS011;4133;48.752;9.088;2022-08-20T10:41:30;0.40;;;0.40;;
8183;SDS011;4133;48.752;9.088;2022-08-20T10:43:56;0.40;;;0.40;;
8183;SDS011;4133;48.752;9.088;2022-08-20T10:46:22;0.50;;;0.50;;
8183;SDS011;4133;48.752;9.088;2022-08-20T10:48:48;1.75;;;0.75;;
8183;SDS011;4133;48.752;9.088;2022-08-20T10:51:14;1.20;;;0.60;;
8183;SDS011;4133;48.752;9.088;2022-08-20T10:53:46;1.67;;;0.60;;
8183;SDS011;4133;48.752;9.088;2022-08-20T10:56:20;0.47;;;0.47;;
8183;SDS011;4133;48.752;9.088;2022-08-20T10:58:46;0.52;;;0.52;;
8183;SDS011;4133;48.752;9.088;2022-08-20T11:01:12;0.45;;;0.45;;
8183;SDS011;4133;48.752;9.088;2022-08-20T11:03:38;1.83;;;0.80;;
8183;SDS011;4133;48.752;9.088;2022-08-20T11:06:04;0.40;;;0.40;;
8183;SDS011;4133;48.752;9.088;2022-08-20T11:08:31;0.40;;;0.40;;
8183;SDS011;4133;48.752;9.088;2022-08-20T11:10:57;0.40;;;0.40;;
8183;SDS011;4133;48.752;9.088;2022-08-20T11:13:25;0.80;;;0.80;;
8183;SDS011;4133;48.752;9.088;2022-08-20T11:15:51;0.40;;;0.40;;
8183;SDS011;4133;48.752;9.088;2022-08-20T11:18:20;0.73;;;0.40;;
8183;SDS011;4133;48.752;9.088;2022-08-20T11:20:46;0.55;;;0.47;;
8183;SDS011;4133;48.752;9.088;2022-08-20T11:23:12;1.45;;;0.60;;
8183;SDS011;4133;48.752;9.088;2022-08-20T11:25:38;0.60;;;0.50;;
8183;SDS011;4133;48.752;9.088;2022-08-20T11:28:04;0.60;;;0.60;;
8183;SDS011;4133;48.752;9.088;2022-08-20T11:30:32;0.50;;;0.50;;
8183;SDS011;4133;48.752;9.088;2022-08-20T11:32:59;0.47;;;0.47;;
8183;SDS011;4133;48.752;9.088;2022-08-20T11:35:26;1.67;;;0.60;;
8183;SDS011;4133;48.752;9.088;2022-08-20T11:37:53;0.60;;;0.60;;
8183;SDS011;4133;48.752;9.088;2022-08-20T11:40:19;0.95;;;0.70;;
8183;SDS011;4133;48.752;9.088;2022-08-20T11:42:45;0.60;;;0.60;;
8183;SDS011;4133;48.752;9.088;2022-08-20T11:45:12;0.88;;;0.88;;
8183;SDS011;4133;48.752;9.088;2022-08-20T11:47:38;0.65;;;0.65;;
8183;SDS011;4133;48.752;9.088;2022-08-20T11:50:09;1.20;;;0.95;;
8183;SDS011;4133;48.752;9.088;2022-08-20T11:52:35;0.60;;;0.60;;
8183;SDS011;4133;48.752;9.088;2022-08-20T11:55:01;0.70;;;0.70;;
8183;SDS011;4133;48.752;9.088;2022-08-20T11:57:28;0.80;;;0.80;;
8183;SDS011;4133;48.752;9.088;2022-08-20T11:59:55;0.73;;;0.73;;
8183;SDS011;4133;48.752;9.088;2022-08-20T12:02:22;2.58;;;0.80;;
8183;SDS011;4133;48.752;9.088;2022-08-20T12:04:48;0.68;;;0.68;;
8183;SDS011;4133;48.752;9.088;2022-08-20T12:07:15;0.63;;;0.63;;
8183;SDS011;4133;48.752;9.088;2022-08-20T12:09:42;0.70;;;0.70;;
8183;SDS011;4133;48.752;9.088;2022-08-20T12:12:08;0.85;;;0.80;;
8183;SDS011;4133;48.752;9.088;2022-08-20T12:14:34;0.50;;;0.50;;
8183;SDS011;4133;48.752;9.088;2022-08-20T12:17:07;0.70;;;0.70;;
8183;SDS011;4133;48.752;9.088;2022-08-20T12:19:35;0.70;;;0.70;;
8183;SDS011;4133;48.752;9.088;2022-08-20T12:22:01;0.50;;;0.50;;
8183;SDS011;4133;48.752;9.088;2022-08-20T12:24:27;0.63;;;0.55;;
8183;SDS011;4133;48.752;9.088;2022-08-20T12:26:53;0.60;;;0.60;;
8183;SDS011;4133;48.752;9.088;2022-08-20T12:29:19;0.60;;;0.60;;
8183;SDS011;4133;48.752;9.088;2022-08-20T12:31:45;0.52;;;0.52;;
8183;SDS011;4133;48.752;9.088;2022-08-20T12:34:11;0.70;;;0.70;;
8183;SDS011;4133;48.752;9.088;2022-08-20T12:36:37;0.50;;;0.50;;
8183;SDS011;4133;48.752;9.088;2022-08-20T12:39:03;0.80;;;0.80;;
8183;SDS011;4133;48.752;9.088;2022-08-20T12:41:30;1.20;;;0.70;;
8183;SDS011;4133;48.752;9.088;2022-08-20T12:43:56;0.50;;;0.50;;
8183;SDS011;4133;48.752;9.088;2022-08-20T12:46:22;0.45;;;0.45;;
8183;SDS011;4133;48.752;9.088;2022-08-20T12:48:48;0.55;;;0.55;;
8183;SDS011;4133;48.752;9.088;2022-08-20T12:51:14;1.40;;;0.80;;
8183;SDS011;4133;48.752;9.088;2022-08-20T12:53:40;4.82;;;1.40;;
8183;SDS011;4133;48.752;9.088;2022-08-20T12:56:06;9.20;;;2.35;;
8183;SDS011;4133;48.752;9.088;2022-08-20T12:58:32;6.20;;;2.30;;
8183;SDS011;4133;48.752;9.088;2022-08-20T13:00:58;3.67;;;1.40;;
8183;SDS011;4133;48.752;9.088;2022-08-20T13:03:24;5.18;;;1.38;;
8183;SDS011;4133;48.752;9.088;2022-08-20T13:05:50;1.00;;;1.00;;
8183;SDS011;4133;48.752;9.088;2022-08-20T13:08:16;1.67;;;1.00;;
8183;SDS011;4133;48.752;9.088;2022-08-20T13:10:43;1.25;;;0.80;;
8183;SDS011;4133;48.752;9.088;2022-08-20T13:13:10;1.00;;;1.00;;
8183;SDS011;4133;48.752;9.088;2022-08-20T13:15:36;2.00;;;0.93;;
8183;SDS011;4133;48.752;9.088;2022-08-20T13:18:03;1.20;;;1.10;;
8183;SDS011;4133;48.752;9.088;2022-08-20T13:20:29;1.08;;;1.00;;
8183;SDS011;4133;48.752;9.088;2022-08-20T13:22:56;1.10;;;1.00;;
8183;SDS011;4133;48.752;9.088;2022-08-20T13:25:22;1.75;;;0.90;;
8183;SDS011;4133;48.752;9.088;2022-08-20T13:27:49;1.17;;;1.17;;
8183;SDS011;4133;48.752;9.088;2022-08-20T13:30:16;0.90;;;0.90;;
8183;SDS011;4133;48.752;9.088;2022-08-20T13:32:42;0.95;;;0.90;;
8183;SDS011;4133;48.752;9.088;2022-08-20T13:35:08;0.80;;;0.80;;
8183;SDS011;4133;48.752;9.088;2022-08-20T13:37:38;0.90;;;0.90;;
8183;SDS011;4133;48.752;9.088;2022-08-20T13:40:04;1.00;;;0.85;;
8183;SDS011;4133;48.752;9.088;2022-08-20T13:42:32;3.08;;;0.93;;
8183;SDS011;4133;48.752;9.088;2022-08-20T13:44:58;0.90;;;0.90;;
8183;SDS011;4133;48.752;9.088;2022-08-20T13:47:28;0.80;;;0.80;;
8183;SDS011;4133;48.752;9.088;2022-08-20T13:49:57;1.42;;;0.90;;
8183;SDS011;4133;48.752;9.088;2022-08-20T13:52:24;0.70;;;0.70;;
8183;SDS011;4133;48.752;9.088;2022-08-20T13:54:50;0.60;;;0.60;;
8183;SDS011;4133;48.752;9.088;2022-08-20T13:57:17;0.80;;;0.80;;
8183;SDS011;4133;48.752;9.088;2022-08-20T13:59:45;1.00;;;0.88;;
8183;SDS011;4133;48.752;9.088;2022-08-20T14:02:12;0.60;;;0.60;;
8183;SDS011;4133;48.752;9.088;2022-08-20T14:04:38;1.00;;;0.80;;
8183;SDS011;4133;48.752;9.088;2022-08-20T14:07:15;0.63;;;0.63;;
8183;SDS011;4133;48.752;9.088;2022-08-20T14:09:43;0.60;;;0.60;;
8183;SDS011;4133;48.752;9.088;2022-08-20T14:12:10;0.50;;;0.50;;
8183;SDS011;4133;48.752;9.088;2022-08-20T14:14:39;0.68;;;0.68;;
8183;SDS011;4133;48.752;9.088;2022-08-20T14:17:25;1.40;;;0.70;;
8183;SDS011;4133;48.752;9.088;2022-08-20T14:19:56;0.70;;;0.70;;
8183;SDS011;4133;48.752;9.088;2022-08-20T14:22:22;0.68;;;0.68;;
8183;SDS011;4133;48.752;9.088;2022-08-20T14:24:48;0.63;;;0.60;;
8183;SDS011;4133;48.752;9.088;2022-08-20T14:27:15;0.63;;;0.63;;
8183;SDS011;4133;48.752;9.088;2022-08-20T14:29:43;0.52;;;0.52;;
8183;SDS011;4133;48.752;9.088;2022-08-20T14:32:09;0.82;;;0.60;;
8183;SDS011;4133;48.752;9.088;2022-08-20T14:34:35;0.88;;;0.80;;
8183;SDS011;4133;48.752;9.088;2022-08-20T14:40:08;1.45;;;0.98;;
8183;SDS011;4133;48.752;9.088;2022-08-20T14:42:34;0.60;;;0.60;;
8183;SDS011;4133;48.752;9.088;2022-08-20T14:45:00;0.75;;;0.75;;
8183;SDS011;4133;48.752;9.088;2022-08-20T14:47:29;1.58;;;0.80;;
8183;SDS011;4133;48.752;9.088;2022-08-20T14:49:56;0.98;;;0.90;;
8183;SDS011;4133;48.752;9.088;2022-08-20T14:52:27;0.60;;;0.60;;
8183;SDS011;4133;48.752;9.088;2022-08-20T14:54:53;0.30;;;0.30;;
8183;SDS011;4133;48.752;9.088;2022-08-20T14:57:19;0.60;;;0.43;;
8183;SDS011;4133;48.752;9.088;2022-08-20T14:59:46;0.55;;;0.55;;
8183;SDS011;4133;48.752;9.088;2022-08-20T15:02:13;0.43;;;0.43;;
8183;SDS011;4133;48.752;9.088;2022-08-20T15:04:40;0.30;;;0.30;;
8183;SDS011;4133;48.752;9.088;2022-08-20T15:07:07;0.60;;;0.60;;
8183;SDS011;4133;48.752;9.088;2022-08-20T15:09:38;1.35;;;0.50;;
8183;SDS011;4133;48.752;9.088;2022-08-20T15:12:04;1.77;;;0.60;;
8183;SDS011;4133;48.752;9.088;2022-08-20T15:17:00;1.25;;;0.40;;
8183;SDS011;4133;48.752;9.088;2022-08-20T15:19:26;0.50;;;0.50;;
8183;SDS011;4133;48.752;9.088;2022-08-20T15:21:52;0.50;;;0.50;;
8183;SDS011;4133;48.752;9.088;2022-08-20T15:24:18;0.50;;;0.45;;
8183;SDS011;4133;48.752;9.088;2022-08-20T15:26:45;0.52;;;0.40;;
8183;SDS011;4133;48.752;9.088;2022-08-20T15:29:11;0.60;;;0.60;;
8183;SDS011;4133;48.752;9.088;2022-08-20T15:31:37;0.57;;;0.30;;
8183;SDS011;4133;48.752;9.088;2022-08-20T15:34:03;0.40;;;0.40;;
8183;SDS011;4133;48.752;9.088;2022-08-20T15:36:30;1.85;;;0.50;;
8183;SDS011;4133;48.752;9.088;2022-08-20T15:38:56;0.50;;;0.50;;